Time;durP1;ratioP1;P1;durP2;ratioP2;P2;SDS_P1;SDS_P2;PMS_P1;PMS_P2;Temp;Humidity;BMP_temperature;BMP_pressure;BME280_temperature;BME280_humidity;BME280_pressure;Samples;Min_cycle;Max_cycle;Signal;HPM_P1;HPM_P2
2022/08/26 00:02:54;;;;;;;8.30;6.07;;;23.90;75.40;;;;;;10475096;28;20323;-73
2022/08/26 00:07:56;;;;;;;8.43;6.13;;;23.90;76.60;;;;;;10467542;28;20311;-74
2022/08/26 00:12:56;;;;;;;6.87;6.17;;;23.80;76.00;;;;;;10476659;28;20226;-71
2022/08/26 00:17:57;;;;;;;6.60;5.83;;;23.80;76.50;;;;;;10476189;28;20222;-71
2022/08/26 00:22:58;;;;;;;10.53;6.20;;;23.70;76.80;;;;;;10467895;28;20261;-70
2022/08/26 00:27:59;;;;;;;6.80;6.10;;;23.60;77.20;;;;;;10490353;28;20246;-70
2022/08/26 00:33:01;;;;;;;6.30;5.70;;;23.60;77.70;;;;;;10473004;28;20225;-70
2022/08/26 00:38:02;;;;;;;8.07;6.13;;;23.40;78.50;;;;;;10473491;28;20233;-74
2022/08/26 00:43:04;;;;;;;7.33;5.60;;;23.30;79.20;;;;;;10475813;28;20226;-74
2022/08/26 00:48:06;;;;;;;7.67;6.30;;;23.20;79.80;;;;;;10471485;28;20233;-74
2022/08/26 00:53:20;;;;;;;13.50;7.33;;;23.20;80.70;;;;;;10481243;28;20235;-74
2022/08/26 00:58:24;;;;;;;8.30;6.77;;;23.20;80.90;;;;;;10488438;28;20303;-74
2022/08/26 01:03:27;;;;;;;10.30;6.67;;;23.20;81.20;;;;;;10471582;28;20233;-73
2022/08/26 01:08:28;;;;;;;10.53;7.43;;;23.10;81.60;;;;;;10477809;28;20223;-73
2022/08/26 01:13:30;;;;;;;8.53;6.00;;;23.10;81.80;;;;;;10470721;28;20234;-71
2022/08/26 01:18:32;;;;;;;7.50;6.53;;;23.10;82.20;;;;;;10469667;28;20219;-71
2022/08/26 01:23:38;;;;;;;9.60;6.30;;;23.00;82.50;;;;;;10472741;28;20256;-72
2022/08/26 01:28:39;;;;;;;6.50;5.90;;;23.00;82.80;;;;;;10470778;28;20234;-73
2022/08/26 01:34:09;;;;;;;7.20;6.13;;;23.00;83.00;;;;;;10470493;28;20231;-71
2022/08/26 01:39:10;;;;;;;7.77;6.43;;;23.10;82.90;;;;;;10473909;28;20205;-71
2022/08/26 01:44:17;;;;;;;7.00;6.27;;;23.10;83.00;;;;;;10473656;28;20275;-71
2022/08/26 01:49:22;;;;;;;8.27;6.50;;;23.10;83.10;;;;;;10475087;28;20310;-71
2022/08/26 01:54:23;;;;;;;8.17;6.00;;;23.10;83.70;;;;;;10460642;28;20226;-71
2022/08/26 01:59:24;;;;;;;7.73;6.37;;;23.00;84.50;;;;;;10474932;28;20313;-72
2022/08/26 02:04:31;;;;;;;10.17;6.13;;;22.90;85.00;;;;;;10461372;28;20228;-72
2022/08/26 02:09:35;;;;;;;8.70;6.10;;;22.80;85.60;;;;;;10458562;28;20215;-72
2022/08/26 02:14:45;;;;;;;10.23;6.80;;;22.80;86.10;;;;;;10475960;28;20272;-73
2022/08/26 02:19:48;;;;;;;11.00;6.90;;;22.70;86.80;;;;;;10457107;28;20213;-73
2022/08/26 02:24:56;;;;;;;7.67;6.87;;;22.70;87.40;;;;;;10475492;28;20771;-70
2022/08/26 02:30:22;;;;;;;9.20;6.83;;;22.60;87.80;;;;;;10463923;28;20219;-70
2022/08/26 02:35:23;;;;;;;8.10;7.00;;;22.70;88.10;;;;;;10464393;28;20302;-71
2022/08/26 02:40:29;;;;;;;10.80;7.10;;;22.60;88.60;;;;;;10468303;28;21551;-71
2022/08/26 02:45:30;;;;;;;8.63;6.30;;;22.60;89.20;;;;;;10468931;28;20285;-73
2022/08/26 02:50:30;;;;;;;11.17;6.90;;;22.50;90.00;;;;;;10464406;28;20211;-74
2022/08/26 02:55:31;;;;;;;7.63;6.83;;;22.40;90.70;;;;;;10477167;28;20222;-74
2022/08/26 03:00:34;;;;;;;7.10;6.40;;;22.40;90.60;;;;;;10465909;28;20219;-72
2022/08/26 03:05:35;;;;;;;9.40;6.00;;;22.40;90.80;;;;;;10460485;28;20307;-72
2022/08/26 03:10:37;;;;;;;10.27;6.67;;;22.40;90.80;;;;;;10468042;28;20219;-72
2022/08/26 03:15:38;;;;;;;9.23;6.57;;;22.40;90.90;;;;;;10471021;28;20246;-72
2022/08/26 03:20:39;;;;;;;10.07;6.90;;;22.50;91.10;;;;;;10480545;28;20340;-72
2022/08/26 03:25:39;;;;;;;8.50;6.30;;;22.40;91.30;;;;;;10472417;28;20223;-73
2022/08/26 03:30:40;;;;;;;9.83;6.97;;;22.40;91.40;;;;;;10474587;28;20253;-73
2022/08/26 03:35:42;;;;;;;11.13;7.30;;;22.40;91.60;;;;;;10477995;28;20231;-72
2022/08/26 03:40:43;;;;;;;7.30;6.60;;;22.40;91.80;;;;;;10471019;28;20778;-72
2022/08/26 03:45:44;;;;;;;7.93;7.13;;;22.40;92.00;;;;;;10474833;28;20302;-73
2022/08/26 03:50:47;;;;;;;9.40;7.20;;;22.40;92.50;;;;;;10475449;28;20792;-72
2022/08/26 03:55:48;;;;;;;8.43;7.60;;;22.30;93.00;;;;;;10470799;28;20228;-72
2022/08/26 04:00:50;;;;;;;8.00;7.10;;;22.30;93.50;;;;;;10479119;28;20216;-73
2022/08/26 04:05:51;;;;;;;7.70;6.97;;;22.30;93.60;;;;;;10481055;28;20326;-75
2022/08/26 04:10:51;;;;;;;8.70;7.20;;;22.30;93.90;;;;;;10474709;28;20349;-72
2022/08/26 04:15:52;;;;;;;9.47;7.73;;;22.30;94.00;;;;;;10478218;28;20659;-74
2022/08/26 04:20:53;;;;;;;9.77;8.23;;;22.20;94.30;;;;;;10470524;28;20307;-74
2022/08/26 04:25:53;;;;;;;8.83;7.93;;;22.20;94.40;;;;;;10472806;28;20231;-73
2022/08/26 04:30:54;;;;;;;9.13;7.20;;;22.20;94.60;;;;;;10472454;28;20230;-72
2022/08/26 04:36:04;;;;;;;9.80;7.60;;;22.20;94.60;;;;;;10475373;28;20223;-74
2022/08/26 04:41:07;;;;;;;9.17;8.17;;;22.20;95.20;;;;;;10469376;28;20219;-73
2022/08/26 04:46:09;;;;;;;11.40;8.27;;;22.30;94.90;;;;;;10476570;28;20254;-73
2022/08/26 04:51:09;;;;;;;10.87;8.77;;;22.30;95.00;;;;;;10474373;28;20226;-73
2022/08/26 04:56:10;;;;;;;8.70;7.60;;;22.30;95.30;;;;;;10476868;28;20227;-69
2022/08/26 05:01:11;;;;;;;9.87;8.20;;;22.30;95.50;;;;;;10471449;28;20709;-66
2022/08/26 05:06:12;;;;;;;9.37;8.47;;;22.40;95.60;;;;;;10468372;28;20756;-69
2022/08/26 05:11:14;;;;;;;12.77;8.47;;;22.40;95.60;;;;;;10466311;28;20249;-67
2022/08/26 05:16:15;;;;;;;13.03;8.03;;;22.40;95.60;;;;;;10454506;28;20227;-70
2022/08/26 05:21:22;;;;;;;9.70;8.03;;;22.50;95.50;;;;;;10468417;28;20325;-70
2022/08/26 05:26:29;;;;;;;15.10;8.23;;;22.50;95.40;;;;;;10470525;28;20215;-69
2022/08/26 05:31:32;;;;;;;9.17;8.17;;;22.60;95.20;;;;;;10467553;28;20223;-70
2022/08/26 05:36:34;;;;;;;9.13;7.70;;;22.70;95.30;;;;;;10461733;28;20231;-68
2022/08/26 05:41:37;;;;;;;9.63;8.27;;;22.70;95.20;;;;;;10445196;28;20266;-71
2022/08/26 05:46:39;;;;;;;12.87;7.90;;;22.80;95.10;;;;;;10455681;28;20710;-70
2022/08/26 05:51:44;;;;;;;10.37;8.13;;;22.80;95.00;;;;;;10463802;28;20223;-69
2022/08/26 05:56:44;;;;;;;9.03;8.07;;;22.80;94.90;;;;;;10469060;28;20278;-70
2022/08/26 06:01:45;;;;;;;10.10;7.67;;;22.90;95.00;;;;;;10470616;28;20591;-70
2022/08/26 06:06:46;;;;;;;11.30;7.60;;;22.90;95.00;;;;;;10462908;28;20584;-70
2022/08/26 06:11:47;;;;;;;11.27;7.63;;;23.00;95.00;;;;;;10472681;28;20227;-70
2022/08/26 06:16:47;;;;;;;9.93;7.67;;;23.00;94.80;;;;;;10469782;28;20363;-70
2022/08/26 06:21:49;;;;;;;13.53;7.13;;;23.10;94.60;;;;;;10475866;28;20277;-70
2022/08/26 06:26:56;;;;;;;9.40;7.43;;;23.10;94.50;;;;;;10464443;28;20224;-69
2022/08/26 06:31:57;;;;;;;12.53;7.50;;;23.10;94.50;;;;;;10469480;28;20589;-70
2022/08/26 06:37:01;;;;;;;14.60;7.20;;;23.20;94.20;;;;;;10454493;28;20291;-70
2022/08/26 06:42:01;;;;;;;8.73;7.43;;;23.40;93.80;;;;;;10464861;28;20631;-70
2022/08/26 06:47:02;;;;;;;7.30;6.60;;;23.50;92.90;;;;;;10472332;28;20225;-69
2022/08/26 06:52:03;;;;;;;7.77;6.97;;;23.80;92.50;;;;;;10466577;28;20230;-68
2022/08/26 06:57:03;;;;;;;14.10;6.77;;;24.30;91.10;;;;;;10479255;28;20206;-70
2022/08/26 07:02:04;;;;;;;8.80;6.40;;;24.80;88.00;;;;;;10464836;28;20208;-70
2022/08/26 07:07:05;;;;;;;9.57;6.17;;;25.00;85.80;;;;;;10475885;28;20217;-70
2022/08/26 07:12:06;;;;;;;11.37;6.73;;;25.60;83.70;;;;;;10472285;28;20225;-76
2022/08/26 07:17:07;;;;;;;13.83;7.00;;;26.10;79.90;;;;;;10476967;28;20697;-76
2022/08/26 07:22:07;;;;;;;11.90;7.10;;;26.40;77.40;;;;;;10470536;28;20682;-75
2022/08/26 07:27:14;;;;;;;11.70;6.40;;;26.40;77.60;;;;;;10460349;28;20223;-75
2022/08/26 07:32:17;;;;;;;11.73;6.20;;;26.70;76.90;;;;;;10470133;28;20215;-76
2022/08/26 07:37:18;;;;;;;9.37;6.43;;;26.80;75.10;;;;;;10464407;28;20218;-76
2022/08/26 07:42:19;;;;;;;9.37;6.80;;;27.10;74.10;;;;;;10469005;28;20233;-75
2022/08/26 07:47:21;;;;;;;6.80;6.20;;;27.00;73.50;;;;;;10469756;28;20220;-76
2022/08/26 07:52:22;;;;;;;10.07;7.27;;;27.00;74.30;;;;;;10480577;28;20222;-75
2022/08/26 07:57:25;;;;;;;9.10;7.37;;;26.90;74.20;;;;;;10476629;28;20214;-72
2022/08/26 08:03:14;;;;;;;12.17;6.97;;;27.20;74.00;;;;;;10474310;28;20325;-74
2022/08/26 08:08:15;;;;;;;10.00;7.00;;;27.00;74.00;;;;;;10471680;28;20518;-75
2022/08/26 08:13:16;;;;;;;9.33;6.70;;;27.00;74.40;;;;;;10459745;28;20220;-76
2022/08/26 08:18:18;;;;;;;10.60;6.53;;;27.20;74.00;;;;;;10473709;28;20224;-75
2022/08/26 08:23:18;;;;;;;10.20;7.13;;;27.40;73.70;;;;;;10465570;28;20219;-75
2022/08/26 08:28:19;;;;;;;8.30;7.03;;;27.20;73.70;;;;;;10474537;28;20238;-75
2022/08/26 08:33:19;;;;;;;10.70;7.30;;;27.40;73.40;;;;;;10468593;28;20249;-75
2022/08/26 08:38:21;;;;;;;10.80;6.90;;;27.50;72.90;;;;;;10467875;28;20216;-75
2022/08/26 08:43:43;;;;;;;10.60;6.57;;;27.60;73.00;;;;;;10475658;28;20216;-76
2022/08/26 08:48:48;;;;;;;10.00;7.07;;;27.60;72.80;;;;;;10484780;28;20231;-74
2022/08/26 08:53:52;;;;;;;10.07;6.93;;;27.60;72.00;;;;;;10464409;28;20231;-75
2022/08/26 08:58:56;;;;;;;11.93;7.37;;;27.30;74.90;;;;;;10470150;28;20315;-75
2022/08/26 09:04:33;;;;;;;10.00;7.40;;;27.10;76.40;;;;;;10461938;28;20632;-76
2022/08/26 09:09:38;;;;;;;14.70;7.50;;;26.90;77.10;;;;;;10465798;28;20284;-76
2022/08/26 09:14:39;;;;;;;9.77;7.20;;;26.70;77.00;;;;;;10470948;28;20245;-75
2022/08/26 09:19:47;;;;;;;16.63;7.37;;;26.70;77.60;;;;;;10468098;28;20237;-76
2022/08/26 09:24:47;;;;;;;10.10;7.20;;;26.70;77.30;;;;;;10461763;28;20696;-75
2022/08/26 09:29:48;;;;;;;14.20;7.90;;;26.70;78.10;;;;;;10474292;28;20305;-75
2022/08/26 09:34:56;;;;;;;9.60;7.43;;;26.60;80.80;;;;;;10467879;28;20222;-74
2022/08/26 09:40:25;;;;;;;12.23;8.73;;;26.40;82.80;;;;;;10469040;28;20227;-75
2022/08/26 09:45:27;;;;;;;10.83;8.00;;;26.40;85.00;;;;;;10457063;28;20334;-75
2022/08/26 09:50:36;;;;;;;15.73;9.50;;;26.20;86.20;;;;;;10478375;28;20213;-75
2022/08/26 09:55:44;;;;;;;15.00;10.37;;;26.10;88.70;;;;;;10463297;28;20236;-75
2022/08/26 10:00:57;;;;;;;11.03;8.87;;;25.90;90.90;;;;;;10461414;28;20234;-75
2022/08/26 10:06:18;;;;;;;17.17;9.27;;;25.70;91.20;;;;;;10460789;28;20225;-75
2022/08/26 10:11:38;;;;;;;16.10;9.50;;;25.60;91.10;;;;;;10463797;28;20220;-74
2022/08/26 10:17:00;;;;;;;11.53;8.53;;;25.70;91.10;;;;;;10464172;28;20246;-75
2022/08/26 10:22:21;;;;;;;12.57;9.40;;;25.80;91.20;;;;;;10472071;28;20245;-75
2022/08/26 10:27:26;;;;;;;14.93;10.07;;;25.90;92.50;;;;;;10466637;28;20817;-76
2022/08/26 10:32:34;;;;;;;17.93;10.07;;;25.60;94.00;;;;;;10471914;28;20213;-75
2022/08/26 10:37:48;;;;;;;13.20;8.93;;;25.60;95.40;;;;;;10474595;28;20213;-76
2022/08/26 10:43:18;;;;;;;11.23;8.30;;;25.60;95.40;;;;;;10473320;28;20702;-76
2022/08/26 10:48:55;;;;;;;10.37;7.70;;;25.60;95.40;;;;;;10467553;28;20274;-76
2022/08/26 10:54:00;;;;;;;11.10;7.80;;;25.60;95.70;;;;;;10470201;28;20567;-76
2022/08/26 10:59:38;;;;;;;10.70;6.97;;;25.70;96.00;;;;;;10472559;28;20679;-76
2022/08/26 11:04:45;;;;;;;10.13;7.00;;;25.80;95.50;;;;;;10478534;28;20233;-76
2022/08/26 11:09:46;;;;;;;11.37;7.83;;;25.90;94.90;;;;;;10477922;28;20669;-75
2022/08/26 11:14:48;;;;;;;9.30;6.73;;;26.00;93.40;;;;;;10457240;28;20290;-75
2022/08/26 11:19:52;;;;;;;8.17;6.20;;;26.10;92.90;;;;;;10478437;28;20217;-74
2022/08/26 11:24:56;;;;;;;9.37;6.67;;;26.30;92.60;;;;;;10477200;28;20215;-75
2022/08/26 11:30:03;;;;;;;10.67;6.50;;;26.60;91.90;;;;;;10472952;28;20229;-74
2022/08/26 11:35:16;;;;;;;7.67;6.67;;;26.80;91.30;;;;;;10474689;28;20643;-75
2022/08/26 11:40:20;;;;;;;11.57;7.90;;;27.10;91.00;;;;;;10475200;28;20215;-76
2022/08/26 11:45:26;;;;;;;15.03;7.80;;;27.30;93.00;;;;;;10479599;28;20203;-76
2022/08/26 11:50:27;;;;;;;11.60;8.10;;;27.60;92.50;;;;;;10470369;28;20667;-76
2022/08/26 11:55:30;;;;;;;9.27;7.10;;;28.10;92.80;;;;;;10467319;28;20230;-76
2022/08/26 12:00:46;;;;;;;12.67;7.63;;;28.70;91.20;;;;;;10477928;28;20208;-76
2022/08/26 12:05:50;;;;;;;16.90;7.40;;;29.20;79.20;;;;;;10468135;28;20219;-76
2022/08/26 12:11:08;;;;;;;8.87;6.97;;;29.50;76.20;;;;;;10475004;28;20216;-76
2022/08/26 12:16:21;;;;;;;8.93;6.97;;;29.70;74.40;;;;;;10473488;28;20231;-75
2022/08/26 12:21:31;;;;;;;10.13;7.10;;;29.60;74.40;;;;;;10483758;28;20601;-76
2022/08/26 12:26:35;;;;;;;8.87;7.23;;;29.70;73.90;;;;;;10467994;28;20239;-74
2022/08/26 12:31:42;;;;;;;7.90;7.10;;;29.80;72.50;;;;;;10446472;28;20220;-75
2022/08/26 12:36:51;;;;;;;11.57;7.40;;;29.90;71.60;;;;;;10461762;28;20722;-75
2022/08/26 12:42:00;;;;;;;7.97;7.17;;;30.50;69.80;;;;;;10462287;28;20263;-76
2022/08/26 12:47:21;;;;;;;14.37;7.93;;;31.10;67.90;;;;;;10464833;28;20231;-76
2022/08/26 12:52:31;;;;;;;11.37;7.37;;;31.80;65.20;;;;;;10472553;28;20216;-75
2022/08/26 12:57:34;;;;;;;8.60;7.17;;;32.50;61.20;;;;;;10476442;28;20577;-76
2022/08/26 13:02:37;;;;;;;9.53;7.50;;;32.80;58.90;;;;;;10465802;28;20234;-74
2022/08/26 13:07:37;;;;;;;9.30;8.30;;;32.60;58.80;;;;;;10468827;28;20215;-72
2022/08/26 13:12:39;;;;;;;9.07;7.73;;;32.80;58.00;;;;;;10472958;28;20227;-73
2022/08/26 13:17:40;;;;;;;11.50;7.23;;;32.80;57.40;;;;;;10477034;28;20215;-73
2022/08/26 13:22:41;;;;;;;11.83;7.57;;;32.90;57.20;;;;;;10472855;28;20709;-74
2022/08/26 13:27:41;;;;;;;17.97;8.10;;;33.10;56.60;;;;;;10475026;28;20207;-73
2022/08/26 13:32:42;;;;;;;11.60;7.80;;;33.20;56.20;;;;;;10472126;28;20231;-72
2022/08/26 13:37:43;;;;;;;14.20;8.17;;;33.10;56.00;;;;;;10474192;28;20211;-74
2022/08/26 13:42:43;;;;;;;11.47;8.73;;;33.10;55.50;;;;;;10474356;28;20231;-73
2022/08/26 13:47:44;;;;;;;12.13;8.07;;;32.80;56.20;;;;;;10470053;28;20591;-73
2022/08/26 13:52:48;;;;;;;9.83;7.90;;;32.50;57.00;;;;;;10473916;28;20204;-73
2022/08/26 13:57:48;;;;;;;10.03;7.67;;;32.30;57.50;;;;;;10471437;28;20219;-72
2022/08/26 14:02:49;;;;;;;12.50;8.13;;;32.40;56.60;;;;;;10470407;28;20607;-73
2022/08/26 14:07:55;;;;;;;11.17;8.50;;;32.50;55.30;;;;;;10472916;28;20239;-73
2022/08/26 14:12:56;;;;;;;15.30;13.80;;;32.60;55.00;;;;;;10471123;28;20428;-73
2022/08/26 14:17:59;;;;;;;17.03;14.90;;;32.50;56.10;;;;;;10471555;28;20218;-73
2022/08/26 14:23:02;;;;;;;16.13;14.53;;;32.00;56.60;;;;;;10470595;28;20231;-74
2022/08/26 14:28:03;;;;;;;16.13;14.43;;;31.80;57.40;;;;;;10471160;28;20232;-74
2022/08/26 14:33:03;;;;;;;13.80;12.47;;;31.40;58.60;;;;;;10472341;28;20242;-72
2022/08/26 14:38:04;;;;;;;17.37;13.60;;;31.20;59.10;;;;;;10470133;28;20254;-74
2022/08/26 14:43:06;;;;;;;16.03;12.30;;;31.00;61.00;;;;;;10474209;28;20223;-72
2022/08/26 14:48:07;;;;;;;13.17;11.83;;;30.50;60.90;;;;;;10470548;28;20310;-73
2022/08/26 14:58:30;;;;;;;9.63;8.73;;;30.30;61.70;;;;;;10470475;28;20216;-74
2022/08/26 15:03:30;;;;;;;10.90;8.20;;;30.50;60.40;;;;;;10473123;28;20223;-74
2022/08/26 15:08:35;;;;;;;6.53;5.93;;;30.50;58.40;;;;;;10470786;28;20242;-75
2022/08/26 15:13:36;;;;;;;6.73;6.13;;;30.40;56.10;;;;;;10467585;28;20239;-75
2022/08/26 15:18:36;;;;;;;6.87;5.87;;;30.40;56.10;;;;;;10489632;28;20578;-73
2022/08/26 15:23:38;;;;;;;8.53;7.63;;;30.50;54.80;;;;;;10475672;28;20237;-74
2022/08/26 15:28:39;;;;;;;16.83;10.63;;;30.50;57.70;;;;;;10476833;28;20223;-73
2022/08/26 15:33:45;;;;;;;16.03;11.83;;;30.30;61.50;;;;;;10475510;28;20227;-75
2022/08/26 15:38:46;;;;;;;15.70;13.50;;;29.90;65.10;;;;;;10476176;28;20701;-75
2022/08/26 15:43:47;;;;;;;14.77;11.80;;;29.90;67.70;;;;;;10477814;28;20231;-76
2022/08/26 15:48:47;;;;;;;14.93;13.33;;;29.50;70.70;;;;;;10480157;28;20231;-75
2022/08/26 15:53:48;;;;;;;16.23;13.30;;;29.70;70.70;;;;;;10475129;28;20713;-75
2022/08/26 15:58:49;;;;;;;15.83;14.10;;;29.80;70.10;;;;;;10473313;28;20212;-75
2022/08/26 16:03:50;;;;;;;15.87;14.27;;;29.60;69.40;;;;;;10476765;28;20595;-75
2022/08/26 16:08:51;;;;;;;19.07;12.83;;;29.50;68.50;;;;;;10476752;28;20219;-75
2022/08/26 16:13:51;;;;;;;14.30;13.00;;;29.30;68.70;;;;;;10476679;28;20236;-79
2022/08/26 16:18:52;;;;;;;13.40;12.03;;;29.00;69.00;;;;;;10472893;28;20273;-75
2022/08/26 16:23:55;;;;;;;13.37;12.10;;;28.90;69.40;;;;;;10476383;28;20314;-74
2022/08/26 16:28:55;;;;;;;12.77;10.43;;;28.70;70.10;;;;;;10475700;28;20258;-75
2022/08/26 16:33:56;;;;;;;13.23;10.47;;;28.50;70.90;;;;;;10475857;28;20227;-76
2022/08/26 16:38:56;;;;;;;14.83;9.43;;;28.20;71.50;;;;;;10475066;28;20210;-74
2022/08/26 16:43:57;;;;;;;11.97;8.70;;;28.00;71.60;;;;;;10478676;28;20302;-75
2022/08/26 16:48:58;;;;;;;11.73;8.13;;;27.80;72.00;;;;;;10475100;28;20226;-74
2022/08/26 16:54:01;;;;;;;9.70;8.10;;;27.60;72.30;;;;;;10474437;28;20260;-75
2022/08/26 16:59:04;;;;;;;11.87;9.57;;;27.40;72.70;;;;;;10473847;28;20309;-75
2022/08/26 17:04:05;;;;;;;12.33;9.83;;;27.20;73.30;;;;;;10473465;28;20230;-74
2022/08/26 17:09:06;;;;;;;13.77;10.07;;;27.00;74.10;;;;;;10474258;28;20238;-74
2022/08/26 17:14:07;;;;;;;14.60;9.83;;;26.80;75.20;;;;;;10474987;28;20230;-75
2022/08/26 17:19:08;;;;;;;15.73;10.93;;;26.60;76.10;;;;;;10474328;28;20607;-74
2022/08/26 17:24:09;;;;;;;14.80;13.20;;;26.40;77.00;;;;;;10476144;28;20226;-76
2022/08/26 17:29:10;;;;;;;20.70;13.93;;;26.20;78.10;;;;;;10474746;28;20250;-74
2022/08/26 17:34:14;;;;;;;18.63;13.80;;;26.10;78.80;;;;;;10468159;28;20273;-69
2022/08/26 17:39:15;;;;;;;16.30;14.23;;;26.00;80.10;;;;;;10466654;28;20226;-68
2022/08/26 17:44:15;;;;;;;24.77;17.43;;;26.10;80.80;;;;;;10473545;28;20218;-68
2022/08/26 17:49:16;;;;;;;18.40;16.57;;;26.10;80.80;;;;;;10477825;28;20657;-70
2022/08/26 17:54:16;;;;;;;19.33;17.43;;;26.20;80.80;;;;;;10472207;28;20224;-69
2022/08/26 17:59:17;;;;;;;21.80;19.60;;;26.20;81.10;;;;;;10463408;28;20208;-70
2022/08/26 18:04:17;;;;;;;20.50;18.40;;;26.20;80.80;;;;;;10471587;28;20220;-69
2022/08/26 18:09:18;;;;;;;21.60;18.93;;;26.10;81.20;;;;;;10464916;28;20217;-69
2022/08/26 18:14:19;;;;;;;20.83;18.00;;;26.00;82.40;;;;;;10489713;28;20239;-69
2022/08/26 18:19:19;;;;;;;18.83;16.30;;;25.90;84.70;;;;;;10472455;28;20300;-69
2022/08/26 18:24:20;;;;;;;18.90;16.90;;;25.70;86.20;;;;;;10462495;28;20231;-69
2022/08/26 18:29:20;;;;;;;17.33;15.60;;;25.60;87.70;;;;;;10465324;28;20263;-68
2022/08/26 18:34:21;;;;;;;17.80;15.13;;;25.40;88.40;;;;;;10455095;28;20215;-69
2022/08/26 18:39:22;;;;;;;17.17;15.40;;;25.40;89.00;;;;;;10454701;28;20218;-69
2022/08/26 18:44:23;;;;;;;19.40;17.07;;;25.40;88.50;;;;;;10461815;28;20713;-70
2022/08/26 18:49:23;;;;;;;20.93;18.80;;;25.50;87.40;;;;;;10472025;28;20228;-70
2022/08/26 18:54:24;;;;;;;19.67;17.87;;;25.50;86.80;;;;;;10475991;28;20596;-69
2022/08/26 18:59:25;;;;;;;20.07;18.00;;;25.50;86.80;;;;;;10470097;28;20239;-72
2022/08/26 19:04:31;;;;;;;20.17;18.13;;;25.40;86.10;;;;;;10468532;28;20435;-70
2022/08/26 19:09:33;;;;;;;19.63;17.73;;;25.40;86.60;;;;;;10479456;28;20262;-70
2022/08/26 19:14:34;;;;;;;18.93;17.13;;;25.20;87.10;;;;;;10484093;28;20308;-70
2022/08/26 19:19:35;;;;;;;18.83;17.00;;;25.00;87.80;;;;;;10470383;28;20613;-70
2022/08/26 19:24:35;;;;;;;18.67;16.73;;;25.00;88.50;;;;;;10469219;28;20299;-69
2022/08/26 19:29:36;;;;;;;18.10;16.40;;;24.90;88.90;;;;;;10479761;28;20223;-70
2022/08/26 19:34:37;;;;;;;18.93;17.20;;;24.80;89.40;;;;;;10489869;28;20729;-69
2022/08/26 19:39:37;;;;;;;17.83;16.17;;;24.70;90.10;;;;;;10463756;28;20326;-68
2022/08/26 19:49:57;;;;;;;18.00;16.23;;;24.40;91.00;;;;;;10473844;28;20682;-70
2022/08/26 19:54:59;;;;;;;17.17;15.40;;;24.30;91.30;;;;;;10475913;28;20228;-69
2022/08/26 20:00:01;;;;;;;17.70;15.07;;;24.20;91.60;;;;;;10475470;28;20250;-68
2022/08/26 20:05:03;;;;;;;16.77;14.80;;;24.20;91.90;;;;;;10483896;28;20246;-68
2022/08/26 20:10:06;;;;;;;17.03;15.07;;;24.20;92.10;;;;;;10477260;28;20224;-67
2022/08/26 20:15:09;;;;;;;16.97;14.43;;;24.10;92.50;;;;;;10473475;28;20220;-68
2022/08/26 20:25:31;;;;;;;15.60;14.07;;;23.90;93.40;;;;;;10471948;28;20212;-68
2022/08/26 20:30:31;;;;;;;20.63;14.10;;;23.80;93.90;;;;;;10479489;28;20247;-70
2022/08/26 20:35:32;;;;;;;14.47;13.00;;;23.90;94.90;;;;;;10475103;28;20832;-74
2022/08/26 20:40:34;;;;;;;14.60;13.10;;;23.90;94.40;;;;;;10479956;28;20238;-75
2022/08/26 20:45:34;;;;;;;15.97;14.57;;;23.80;94.60;;;;;;10477194;28;20703;-75
2022/08/26 20:50:37;;;;;;;15.23;13.90;;;23.70;95.30;;;;;;10488490;28;20230;-75
2022/08/26 20:55:38;;;;;;;16.23;14.63;;;23.60;95.90;;;;;;10474154;28;20234;-75
2022/08/26 21:00:42;;;;;;;16.33;14.73;;;23.60;96.60;;;;;;10472502;28;20227;-76
2022/08/26 21:05:42;;;;;;;15.70;14.10;;;23.50;97.10;;;;;;10473227;28;20702;-75
2022/08/26 21:10:44;;;;;;;14.27;12.87;;;23.50;97.30;;;;;;10478107;28;20249;-75
2022/08/26 21:15:44;;;;;;;15.03;13.13;;;23.40;97.60;;;;;;10460512;28;20233;-76
2022/08/26 21:20:45;;;;;;;14.37;12.37;;;23.40;97.80;;;;;;10478047;28;20303;-76
2022/08/26 21:25:46;;;;;;;13.27;11.97;;;23.40;98.00;;;;;;10474026;28;20299;-76
2022/08/26 21:30:46;;;;;;;14.90;11.90;;;23.30;98.20;;;;;;10465078;28;20358;-76
2022/08/26 21:35:54;;;;;;;13.20;11.27;;;23.20;98.60;;;;;;10462166;28;20239;-75
2022/08/26 21:41:21;;;;;;;12.87;11.43;;;23.10;99.00;;;;;;10472551;28;20319;-76
2022/08/26 21:46:23;;;;;;;18.63;11.87;;;23.10;99.50;;;;;;10462270;28;20227;-75
2022/08/26 21:51:27;;;;;;;11.77;10.07;;;23.00;99.80;;;;;;10473915;28;20958;-75
2022/08/26 21:56:30;;;;;;;12.47;11.17;;;23.00;99.90;;;;;;10461677;28;20238;-75
2022/08/26 22:01:33;;;;;;;13.50;10.30;;;22.90;99.90;;;;;;10462245;28;20208;-74
2022/08/26 22:06:41;;;;;;;11.43;9.83;;;22.90;99.90;;;;;;10479633;28;20294;-75
2022/08/26 22:11:42;;;;;;;10.83;9.73;;;22.80;99.90;;;;;;10468208;28;20238;-77
2022/08/26 22:16:43;;;;;;;12.20;9.80;;;22.70;99.90;;;;;;10477829;28;20241;-76
2022/08/26 22:21:44;;;;;;;11.53;9.93;;;22.70;99.90;;;;;;10476765;28;20644;-76
2022/08/26 22:26:45;;;;;;;12.87;9.83;;;22.70;99.90;;;;;;10470435;28;20237;-76
2022/08/26 22:31:49;;;;;;;11.23;9.10;;;22.70;99.90;;;;;;10485977;28;20215;-76
2022/08/26 22:36:52;;;;;;;9.80;8.80;;;22.70;99.90;;;;;;10481839;28;20228;-75
2022/08/26 22:41:54;;;;;;;11.93;9.80;;;22.70;99.90;;;;;;10479002;28;20575;-78
2022/08/26 22:46:54;;;;;;;9.87;8.67;;;22.80;99.90;;;;;;10483880;28;20251;-75
2022/08/26 22:51:55;;;;;;;12.23;9.70;;;22.70;99.90;;;;;;10466979;28;20695;-76
2022/08/26 22:56:55;;;;;;;12.00;9.27;;;22.70;99.90;;;;;;10478396;28;20227;-77
2022/08/26 23:01:56;;;;;;;11.90;8.70;;;22.70;99.90;;;;;;10482202;28;20243;-76
2022/08/26 23:06:57;;;;;;;11.23;9.00;;;22.70;99.90;;;;;;10480101;28;20230;-76
2022/08/26 23:11:57;;;;;;;11.57;8.60;;;22.70;99.90;;;;;;10481775;28;20223;-74
2022/08/26 23:16:58;;;;;;;11.37;9.37;;;22.80;99.90;;;;;;10479529;28;20231;-75
2022/08/26 23:21:59;;;;;;;11.00;8.27;;;22.80;99.90;;;;;;10480822;28;20215;-77
2022/08/26 23:27:00;;;;;;;8.90;8.00;;;22.70;99.90;;;;;;10475067;28;20211;-75
2022/08/26 23:32:03;;;;;;;9.47;8.47;;;22.60;99.90;;;;;;10476928;28;20222;-76
2022/08/26 23:37:06;;;;;;;13.37;8.83;;;22.60;99.90;;;;;;10476349;28;20227;-76
2022/08/26 23:42:07;;;;;;;11.10;9.20;;;22.50;99.90;;;;;;10466141;28;20226;-73
2022/08/26 23:47:08;;;;;;;10.43;8.93;;;22.40;99.90;;;;;;10472678;28;20241;-76
2022/08/26 23:57:28;;;;;;;12.63;9.03;;;22.40;99.90;;;;;;10462688;28;20691;-74
